Sonic Adventure (DX): Overall Rankings

Records: Times | Rings | Scores | Races | Bosses | Freestyle
Leaders: Times | Rings | Scores | Races | Bosses | Freestyle | Overall
Rank Player Percent Points Order Asc Date
1 Sonicspeedruner 98.0% 338 02-20-18
2 Gamepro011 98.0% 347 02-20-18
3 DarkPolarNight 96.7% 564 02-20-18
4 Jawzun 93.2% 1183 02-20-18
5 Dashjump 91.6% 1452 02-20-18
6 DarkspinesSonic 89.8% 1770 02-20-18
7 Avento128bits 89.6% 1805 02-20-18
8 ike6252 89.4% 1838 02-20-18
9 F-Man 87.6% 2155 02-20-18
10 Coolfansonic 87.1% 2240 02-20-18
11 HyperSonic7701 84.3% 2733 02-20-18
12 TheRealShadnic 84.0% 2789 02-20-18
13 yoshifan 82.6% 3029 02-20-18
14 frankoredstrato 82.2% 3099 02-20-18
15 francisco 81.2% 3266 02-20-18
16 Marth 81.0% 3298 02-20-18
17 InferSaime 79.8% 3518 02-20-18
18 PfoSonic 79.3% 3597 02-20-18
19 Paragod 78.9% 3669 02-20-18
20 THC98 78.0% 3823 02-20-18
21 Stefan 75.7% 4239 02-20-18
22 RPGnutter 73.5% 4609 02-20-18
23 bertin 73.4% 4629 02-20-18
24 sonicam 71.3% 4997 02-20-18
25 drminus 70.0% 5234 02-20-18
26 xXMegaManXx 69.9% 5246 02-20-18
27 chainchumper 65.8% 5962 02-20-18
28 Combo 65.4% 6029 02-20-18
29 chaos shadow 64.8% 6128 02-20-18
30 Dekuboy 64.7% 6144 02-20-18
31 SkyLights 64.3% 6227 02-20-18
32 Diamond 62.2% 6590 02-20-18
33 Auriman1 60.1% 6951 02-20-18
34 GerbilSoft 60.1% 6953 02-20-18
35 OmegaDJ 60.1% 6962 02-20-18
36 magnum12 59.2% 7103 02-20-18
37 Thorn 57.1% 7485 02-20-18
38 P1 Pause 56.9% 7509 02-20-18
39 mike89 55.9% 7694 02-20-18
40 Dave Cramer 53.9% 8037 02-20-18
41 Groudon199 53.9% 8041 02-20-18
42 Parax 53.1% 8174 02-20-18
43 Shadow Jacky 52.7% 8237 02-20-18
44 Psymar 47.6% 9141 02-20-18
45 Arch 46.9% 9260 02-20-18
46 Chao_Fan 45.9% 9426 02-20-18
47 mauserman 45.1% 9572 02-20-18
48 Quartz 44.9% 9613 02-20-18
49 teamblackarms 44.1% 9751 02-20-18
50 Calfd 43.5% 9857 02-20-18
51 Psyknux 43.3% 9883 02-20-18
52 James_Bertolli 43.1% 9925 02-20-18
53 NintenDan 42.6% 10002 02-20-18
54 Webber3000 42.1% 10093 02-20-18
55 Turbos 42.0% 10116 02-20-18
56 Ring Rush 41.8% 10152 02-20-18
57 Cream147 41.6% 10188 02-20-18
58 videogamemaster777 41.4% 10215 02-20-18
59 Fr3nZy 41.3% 10231 02-20-18
60 Siavash Tazari 41.2% 10244 02-20-18
61 buddychaos0415 40.6% 10348 02-20-18
62 SadisticMystic 40.2% 10432 02-20-18
63 ethmar 39.7% 10514 02-20-18
64 eggFL 39.4% 10573 02-20-18
65 SB737 37.8% 10848 02-20-18
66 supersonic465 37.3% 10929 02-20-18
67 supersonicfan 36.7% 11043 02-20-18
68 FuzZerd 35.5% 11248 02-20-18
69 Aitamen 35.0% 11335 02-20-18
70 BigAL49 34.6% 11403 02-20-18
71 elecmouse101 34.6% 11405 02-20-18
72 danieldude 34.5% 11424 02-20-18
73 Austinf 33.6% 11582 02-20-18
74 metanightmare22 33.4% 11611 02-20-18
75 Cyan Ryan 33.2% 11645 02-20-18
76 dabestgamer 32.9% 11693 02-20-18
77 MiStEr_ShAoLiN 32.9% 11705 02-20-18
78 Andrea Ritsu 32.1% 11837 02-20-18
79 itsPersonnal 31.7% 11912 02-20-18
80 Cybrax 31.0% 12023 02-20-18
81 SilvertheAlmighty 30.8% 12073 02-20-18
82 JamminX42 30.7% 12084 02-20-18
83 Nim 30.6% 12102 02-20-18
84 VMU Player Banned 29.0% 12383 02-20-18
85 Staf 28.5% 12463 02-20-18
86 Omega Rafael Santos 28.4% 12483 02-20-18
87 The T 28.0% 12546 02-20-18
88 EngiNerd 27.9% 12578 02-20-18
89 lordmetalsonic 27.4% 12656 02-20-18
90 Hipertails12 26.9% 12746 02-20-18
91 welldooder64 26.8% 12758 02-20-18
92 GreatStar 26.6% 12800 02-20-18
93 The Great Lord Mick 26.4% 12830 02-20-18
94 Sondow 26.3% 12843 02-20-18
95 Mastakirby 26.3% 12848 02-20-18
96 LinksDarkArrows 26.1% 12880 02-20-18
97 Skylace 25.2% 13039 02-20-18
98 a_moustache 24.2% 13222 02-20-18
99 Rolken 23.7% 13303 02-20-18
100 Xia 22.0% 13595 02-20-18
101 Kogen Player Banned 22.0% 13598 02-20-18
102 Spinballwizard 22.0% 13600 02-20-18
103 Twilisailor 21.6% 13670 02-20-18
104 f0rever_zer0 21.5% 13687 02-20-18
105 Don 21.3% 13720 02-20-18
106 Cutiefox 21.3% 13721 02-20-18
107 Game_Complete 21.2% 13739 02-20-18
108 Miles9999 21.1% 13751 02-20-18
109 andres430 20.7% 13829 02-20-18
110 Cruizer 20.4% 13875 02-20-18
111 iSonicKid2K 20.3% 13892 02-20-18
112 SADXTryHard 20.1% 13931 02-20-18
113 GarnetPrincess 19.6% 14019 02-20-18
114 N 19.3% 14075 02-20-18
115 AxlThunder 19.0% 14120 02-20-18
116 Niczur 19.0% 14127 02-20-18
117 knuckles_sonic8 18.5% 14212 02-20-18
118 The Knuckles Chao 18.3% 14252 02-20-18
119 KinkyCadence 18.2% 14262 02-20-18
120 Team_Yoshi 17.9% 14324 02-20-18
121 Termon 17.8% 14329 02-20-18
122 LittleBigness 17.8% 14342 02-20-18
123 SonicWinDX 17.6% 14366 02-20-18
124 FoxBoy 17.6% 14376 02-20-18
125 Drakodan 16.8% 14505 02-20-18
126 Sonic Singularity 15.9% 14672 02-20-18
127 Pokemonmaster888 15.6% 14721 02-20-18
128 SilverSonic 14.6% 14896 02-20-18
129 MPit08 14.5% 14918 02-20-18
130 WeegeeZV 14.2% 14962 02-20-18
131 koinu93 14.1% 14982 02-20-18
132 Mo Player Banned 14.0% 14995 02-20-18
133 HyperSonic64 13.6% 15065 02-20-18
134 Cod4Scopes 13.6% 15067 02-20-18
135 booo95 13.5% 15090 02-20-18
136 Chawkk 13.3% 15112 02-20-18
137 Jerzia 13.3% 15115 02-20-18
138 paulie9990 13.3% 15123 02-20-18
139 SuperSonic101 13.1% 15160 02-20-18
140 Hunters13 13.0% 15164 02-20-18
141 Maxinfamily 13.0% 15172 02-20-18
142 LilZero 12.6% 15241 02-20-18
143 Kanimayo_Jp 12.6% 15243 02-20-18
144 BrokenArthritis 12.5% 15267 02-20-18
145 PsyBorg 12.4% 15284 02-20-18
146 Flying Fox 12.3% 15291 02-20-18
147 Therio 12.0% 15345 02-20-18
148 sonicspeed 11.9% 15371 02-20-18
149 douglas 11.8% 15385 02-20-18
150 Matt_TY 11.4% 15447 02-20-18
151 thewaytodawnnn 11.4% 15454 02-20-18
152 ModifiedMonkee 11.2% 15489 02-20-18
153 Cooljay 10.9% 15546 02-20-18
154 SuperBlitzCraig 10.7% 15573 02-20-18
155 SeaWolf 10.6% 15585 02-20-18
155 joecoolgames 10.6% 15585 02-20-18
157 videogamer1014 10.5% 15610 02-20-18
158 AC-Tygo 10.2% 15657 02-20-18
159 welshmoose05 10.2% 15666 02-20-18
160 OddCook 10.0% 15703 02-20-18
161 crazy1993 9.9% 15711 02-20-18
162 TFEC Headshot 9.8% 15726 02-20-18
163 Mcshuggets 9.7% 15752 02-20-18
164 niscool 9.4% 15798 02-20-18
165 Mariobutch 9.3% 15824 02-20-18
166 Irregular Zero 9.3% 15826 02-20-18
167 nuckrieg 9.2% 15834 02-20-18
168 SonicAD 9.1% 15844 02-20-18
169 Shadowthegreat 9.0% 15865 02-20-18
170 superjupi 9.0% 15869 02-20-18
171 SirTobbii 9.0% 15874 02-20-18
172 sonamyfan666 8.7% 15918 02-20-18
173 iarebored 8.6% 15933 02-20-18
174 Powerjohn25 8.6% 15934 02-20-18
175 SaviourDC 8.6% 15940 02-20-18
176 SonicKnuckles 8.6% 15945 02-20-18
177 adf 8.2% 16006 02-20-18
178 Werey 8.2% 16008 02-20-18
179 Megaman EXE565 8.0% 16047 02-20-18
180 Platformer 7.6% 16116 02-20-18
181 ArcticDragon 7.6% 16117 02-20-18
182 timpkmn89 7.5% 16134 02-20-18
183 wheatrich 7.4% 16151 02-20-18
184 Swift Hobo 7.3% 16166 02-20-18
184 FocusSight64 7.3% 16166 02-20-18
186 Rickyman48 7.1% 16201 02-20-18
187 KitsuneYamaro 7.0% 16211 02-20-18
188 Triseena 6.9% 16241 02-20-18
189 dShadow 6.6% 16293 02-20-18
190 Destroyer121121 6.5% 16302 02-20-18
191 Starlight Sable 6.5% 16308 02-20-18
192 CyberShadow 6.5% 16311 02-20-18
193 slade23 6.5% 16314 02-20-18
194 IsisDazs 6.3% 16342 02-20-18
195 BlankTH 6.1% 16375 02-20-18
196 Monkeh 6.1% 16382 02-20-18
197 Redd 6.0% 16401 02-20-18
198 Badlex727 5.9% 16406 02-20-18
199 SonicU260 5.9% 16414 02-20-18
200 Richied 5.8% 16432 02-20-18
201 DaDude 5.7% 16448 02-20-18
202 Swinkly 5.7% 16453 02-20-18
203 Crispian 5.6% 16456 02-20-18
204 Vicklaw 5.6% 16465 02-20-18
205 sonicd5 5.6% 16469 02-20-18
206 Zip 5.5% 16472 02-20-18
207 ALundstrom10 5.2% 16536 02-20-18
208 VeritasDL 5.2% 16539 02-20-18
209 tal39h 5.1% 16542 02-20-18
210 Kirbymon30 5.1% 16558 02-20-18
211 soniccoloursunleashed 5.0% 16572 02-20-18
212 Drflash55 4.9% 16578 02-20-18
213 Bass 4.9% 16591 02-20-18
214 neaolas 4.7% 16612 02-20-18
215 superiorsonic 4.7% 16617 02-20-18
216 zapp 4.7% 16628 02-20-18
217 Yish 4.6% 16631 02-20-18
218 UninspiredUsername 4.6% 16639 02-20-18
219 Sonicsuperstar1 4.5% 16651 02-20-18
220 gamefreak1292 4.5% 16659 02-20-18
221 Sora_yx 4.3% 16689 02-20-18
222 Chaos_Overlord 4.2% 16715 02-20-18
223 TakaRikka 4.0% 16737 02-20-18
224 Valfore 4.0% 16741 02-20-18
225 Dage4Aquatic 3.9% 16765 02-20-18
226 ShinigamiMachine 3.8% 16778 02-20-18
227 Regano1000 3.8% 16785 02-20-18
228 MK 3.7% 16798 02-20-18
229 Ace747 3.6% 16817 02-20-18
230 Jua Rever 3.4% 16839 02-20-18
231 Illidan 3.1% 16891 02-20-18
232 HHNNBBHHN 3.1% 16895 02-20-18
233 Venick409 3.1% 16897 02-20-18
234 Sithwarrior26 3.1% 16900 02-20-18
235 Brian_pso 3.1% 16901 02-20-18
235 nman36 3.1% 16901 02-20-18
237 Egor305 3.0% 16920 02-20-18
238 SkyBon 3.0% 16922 02-20-18
239 ingx24 2.9% 16929 02-20-18
240 TheChaosEmeraIds 2.9% 16930 02-20-18
241 dekki1234 2.9% 16938 02-20-18
242 Nickson98 2.9% 16942 02-20-18
243 Fozer 2.8% 16952 02-20-18
244 Colomb_30 2.8% 16954 02-20-18
245 FSSRandomvids 2.8% 16958 02-20-18
246 Aiko 2.7% 16970 02-20-18
247 sonic29887 2.7% 16972 02-20-18
248 TheUltraBlur 2.6% 16982 02-20-18
249 1stKirbyever 2.6% 16988 02-20-18
250 TimTH 2.5% 17002 02-20-18
251 Th4tN1nj4Turtl3 2.4% 17023 02-20-18
252 Cort_pso 2.3% 17036 02-20-18
253 ieatatsonic 2.3% 17040 02-20-18
254 Mariosonic15 2.2% 17048 02-20-18
255 Doom-9 2.2% 17050 02-20-18
256 Artie 2.2% 17060 02-20-18
257 MStitomix 2.1% 17066 02-20-18
258 HermitHelmet 2.1% 17070 02-20-18
259 Got4n 2.0% 17088 02-20-18
260 SuperSonic71087 2.0% 17089 02-20-18
261 Jose_15 2.0% 17099 02-20-18
262 Questionguy555 1.9% 17105 02-20-18
263 djmat 1.9% 17115 02-20-18
264 SuperSonicfan9595 1.8% 17120 02-20-18
265 sonicandamy Player Banned 1.7% 17137 02-20-18
266 Heroes_Hater 1.7% 17139 02-20-18
267 LancexExWx 1.7% 17148 02-20-18
268 Paixii 1.7% 17149 02-20-18
269 son1cgu1tar 1.7% 17152 02-20-18
270 BallzeH 1.6% 17164 02-20-18
270 Mankster101 1.6% 17164 02-20-18
272 BecauseWarAnvil 1.5% 17173 02-20-18
273 Jamixesa 1.5% 17177 02-20-18
274 SpiritDragon1995 1.5% 17185 02-20-18
275 Crydio 1.4% 17190 02-20-18
276 Shanekilz 1.4% 17191 02-20-18
277 MarewBFN 1.3% 17205 02-20-18
278 stanski 1.3% 17209 02-20-18
279 Sonique Hedgehog 1.3% 17211 02-20-18
280 p0ker 1.2% 17223 02-20-18
281 Blue Infamy 1.2% 17225 02-20-18
282 ErrortheCucco 1.2% 17236 02-20-18
283 Rikum22 1.2% 17239 02-20-18
284 Arthas 1.1% 17241 02-20-18
285 sonic1001 1.1% 17247 02-20-18
286 WingedInsignia 1.1% 17253 02-20-18
287 AJSIV 1.1% 17254 02-20-18
287 syco1098 1.1% 17254 02-20-18
289 Sonic the Hedgehod16 1.1% 17257 02-20-18
290 ASINISTERTACO 1.0% 17263 02-20-18
291 sonicfan9 1.0% 17269 02-20-18
292 BlackArmsShadow 0.9% 17277 02-20-18
293 themachoman202 0.9% 17279 02-20-18
294 darkstarblaze 0.9% 17284 02-20-18
295 Fivavoa 0.9% 17288 02-20-18
295 shadowblast63 Player Banned 0.9% 17288 02-20-18
297 Greham Adelphis 0.9% 17289 02-20-18
298 Mr. Jones 0.9% 17290 02-20-18
299 Ben1502 0.8% 17292 02-20-18
299 MastaToken 0.8% 17292 02-20-18
301 arcfx1985 0.8% 17293 02-20-18
302 ptorflaxendrosis 0.8% 17295 02-20-18
303 TommyeAsY 0.8% 17297 02-20-18
304 FlandreScarlet9999vr 0.8% 17301 02-20-18
304 Gvozdevik 0.8% 17301 02-20-18
306 Knuckles 0.8% 17302 02-20-18
307 Zeldocto 0.8% 17303 02-20-18
308 KaM Mark MaK 0.8% 17305 02-20-18
309 BeeAwwb 0.8% 17307 02-20-18
310 ShadouZaHejjihoggu 0.7% 17313 02-20-18
311 Sarger001 0.7% 17321 02-20-18
312 dragondragon18 0.7% 17323 02-20-18
312 Sonic The Star 0.7% 17323 02-20-18
312 Sonic62 0.7% 17323 02-20-18
315 darkersupershadic 0.7% 17324 02-20-18
316 Sogeking 0.6% 17329 02-20-18
316 Grady219 0.6% 17329 02-20-18
318 Shadygamerfreak 0.6% 17330 02-20-18
319 SonicK100 0.6% 17331 02-20-18
320 BioShadow 0.6% 17332 02-20-18
321 Jawaah 0.6% 17338 02-20-18
322 Antek 0.6% 17342 02-20-18
322 SilverK 0.6% 17342 02-20-18
324 Klaus 0.6% 17344 02-20-18
325 SpinDashMaster 0.5% 17348 02-20-18
326 Videogamer123 0.5% 17353 02-20-18
327 isaihtb11 0.4% 17368 02-20-18
327 oTaiIilLsS 0.4% 17368 02-20-18
329 OhNoes! 0.4% 17371 02-20-18
330 zaktu40 0.4% 17372 02-20-18
331 Mad Andy 0.4% 17375 02-20-18
331 gaara1234 0.4% 17375 02-20-18
331 S-MS32X-S 0.4% 17375 02-20-18
334 gamed00d 0.4% 17376 02-20-18
335 Mister_Slick 0.3% 17387 02-20-18
336 Sonic06Fan 0.3% 17390 02-20-18
337 Rush Hero 0.3% 17391 02-20-18
338 SonicMega167 0.3% 17396 02-20-18
339 Iwannabelink 0.2% 17398 02-20-18
340 sonknuck23 0.2% 17401 02-20-18
341 gamer1245 0.2% 17410 02-20-18
342 DanielTheFalcon 0.2% 17411 02-20-18
343 Burningskull123 0.1% 17415 02-20-18
344 Sonicontherun 0.1% 17426 02-20-18
345 Lil_Dude 0.1% 17431 02-20-18
346 antiwwe 0.0% 17432 02-20-18
347 Tyrouble 0.0% 17434 02-20-18
348 Genuine Hedgehog 0.0% 17435 02-20-18
348 SonataSpinDash 0.0% 17435 02-20-18
350 Cbwade15 0.0% 17439 02-20-18
351 neji_hyuuga 0.0% 17449 02-20-18
351 MegabombBlade 0.0% 17449 02-20-18
351 Over 0.0% 17449 02-20-18
351 Tran Sonic Fan Player Banned 0.0% 17449 02-20-18
351 sdj6707 Player Banned 0.0% 17449 02-20-18

This page is using the New Data Table System. [FUTURE]

Game ID: 3 | Category ID: 10
Hits: 71,885 | Hits This Month: 151 | DB Calls: 21 | Mem Usage: 5.48 MB | Time: 0.14s | Printable

The Sonic Center v3.9
Copyright 2003-2011 by The Sonic Center Team.